sensor_id;sensor_type;location;lat;lon;timestamp;pressure;altitude;pressure_sealevel;temperature;humidity
72409;BME280;60402;48.082;11.628;2023-01-23T00:00:07;96295.56;;;-6.19;99.10
72409;BME280;60402;48.082;11.628;2023-01-23T00:02:35;96333.38;;;-5.93;98.50
72409;BME280;60402;48.082;11.628;2023-01-23T00:05:00;96316.75;;;-6.19;98.81
72409;BME280;60402;48.082;11.628;2023-01-23T00:07:26;96329.84;;;-6.25;98.68
72409;BME280;60402;48.082;11.628;2023-01-23T00:09:51;96296.22;;;-6.53;97.82
72409;BME280;60402;48.082;11.628;2023-01-23T00:12:16;96346.25;;;-6.11;97.87
72409;BME280;60402;48.082;11.628;2023-01-23T00:14:42;96350.81;;;-6.06;98.48
72409;BME280;60402;48.082;11.628;2023-01-23T00:17:07;96259.25;;;-6.69;98.28
72409;BME280;60402;48.082;11.628;2023-01-23T00:19:32;96328.56;;;-6.19;98.48
72409;BME280;60402;48.082;11.628;2023-01-23T00:21:59;96335.75;;;-6.09;98.04
72409;BME280;60402;48.082;11.628;2023-01-23T00:24:25;96354.88;;;-6.04;98.29
72409;BME280;60402;48.082;11.628;2023-01-23T00:26:50;96335.06;;;-6.14;97.46
72409;BME280;60402;48.082;11.628;2023-01-23T00:29:15;96324.66;;;-6.26;98.12
72409;BME280;60402;48.082;11.628;2023-01-23T00:31:41;96298.94;;;-6.30;96.95
72409;BME280;60402;48.082;11.628;2023-01-23T00:34:11;96341.06;;;-6.12;97.03
72409;BME280;60402;48.082;11.628;2023-01-23T00:36:38;96343.66;;;-6.07;96.29
72409;BME280;60402;48.082;11.628;2023-01-23T00:39:06;96350.69;;;-6.01;95.80
72409;BME280;60402;48.082;11.628;2023-01-23T00:41:32;96316.94;;;-6.15;94.78
72409;BME280;60402;48.082;11.628;2023-01-23T00:43:58;96330.19;;;-6.18;94.26
72409;BME280;60402;48.082;11.628;2023-01-23T00:46:24;96334.34;;;-6.29;94.76
72409;BME280;60402;48.082;11.628;2023-01-23T00:48:50;96315.19;;;-6.43;95.68
72409;BME280;60402;48.082;11.628;2023-01-23T00:51:16;96352.75;;;-6.38;96.13
72409;BME280;60402;48.082;11.628;2023-01-23T00:53:41;96359.00;;;-6.46;96.89
72409;BME280;60402;48.082;11.628;2023-01-23T00:56:07;96315.72;;;-6.63;97.07
72409;BME280;60402;48.082;11.628;2023-01-23T00:58:32;96356.63;;;-6.39;98.59
72409;BME280;60402;48.082;11.628;2023-01-23T01:00:57;96342.38;;;-6.41;99.59
72409;BME280;60402;48.082;11.628;2023-01-23T01:03:23;96346.03;;;-6.23;98.59
72409;BME280;60402;48.082;11.628;2023-01-23T01:05:49;96347.28;;;-5.89;97.42
72409;BME280;60402;48.082;11.628;2023-01-23T01:08:15;96339.16;;;-6.03;97.58
72409;BME280;60402;48.082;11.628;2023-01-23T01:10:41;96351.84;;;-5.85;97.76
72409;BME280;60402;48.082;11.628;2023-01-23T01:13:07;96356.44;;;-5.72;96.37
72409;BME280;60402;48.082;11.628;2023-01-23T01:15:33;96355.31;;;-5.62;95.24
72409;BME280;60402;48.082;11.628;2023-01-23T01:17:58;96367.34;;;-5.49;94.56
72409;BME280;60402;48.082;11.628;2023-01-23T01:20:25;96376.28;;;-5.44;94.35
72409;BME280;60402;48.082;11.628;2023-01-23T01:22:52;96386.28;;;-5.56;94.66
72409;BME280;60402;48.082;11.628;2023-01-23T01:25:17;96333.22;;;-5.79;95.33
72409;BME280;60402;48.082;11.628;2023-01-23T01:27:43;96379.00;;;-5.52;95.38
72409;BME280;60402;48.082;11.628;2023-01-23T01:30:08;96295.47;;;-6.05;95.42
72409;BME280;60402;48.082;11.628;2023-01-23T01:32:38;96370.78;;;-5.35;93.92
72409;BME280;60402;48.082;11.628;2023-01-23T01:35:05;96345.66;;;-5.42;92.35
72409;BME280;60402;48.082;11.628;2023-01-23T01:37:35;96357.63;;;-5.47;92.80
72409;BME280;60402;48.082;11.628;2023-01-23T01:40:02;96361.41;;;-5.34;93.32
72409;BME280;60402;48.082;11.628;2023-01-23T01:42:28;96324.44;;;-5.50;92.91
72409;BME280;60402;48.082;11.628;2023-01-23T01:44:59;96341.50;;;-5.22;91.41
72409;BME280;60402;48.082;11.628;2023-01-23T01:47:25;96333.84;;;-5.34;90.60
72409;BME280;60402;48.082;11.628;2023-01-23T01:49:54;96356.69;;;-5.33;92.03
72409;BME280;60402;48.082;11.628;2023-01-23T01:52:22;96341.59;;;-5.45;92.37
72409;BME280;60402;48.082;11.628;2023-01-23T01:54:53;96340.31;;;-5.38;92.41
72409;BME280;60402;48.082;11.628;2023-01-23T01:57:26;96342.13;;;-5.25;93.16
72409;BME280;60402;48.082;11.628;2023-01-23T02:00:22;96354.28;;;-5.18;92.27
72409;BME280;60402;48.082;11.628;2023-01-23T02:02:56;96349.91;;;-5.19;92.77
72409;BME280;60402;48.082;11.628;2023-01-23T02:05:29;96339.72;;;-5.27;93.02
72409;BME280;60402;48.082;11.628;2023-01-23T02:10:23;96340.78;;;-5.36;94.32
72409;BME280;60402;48.082;11.628;2023-01-23T02:12:51;96354.28;;;-5.18;94.48
72409;BME280;60402;48.082;11.628;2023-01-23T02:15:19;96321.88;;;-5.29;93.91
72409;BME280;60402;48.082;11.628;2023-01-23T02:17:46;96329.50;;;-5.26;94.49
72409;BME280;60402;48.082;11.628;2023-01-23T02:20:22;96344.38;;;-5.27;95.45
72409;BME280;60402;48.082;11.628;2023-01-23T02:23:04;96312.28;;;-5.41;96.03
72409;BME280;60402;48.082;11.628;2023-01-23T02:28:14;96267.53;;;-5.63;96.42
72409;BME280;60402;48.082;11.628;2023-01-23T02:30:41;96328.34;;;-5.25;96.34
72409;BME280;60402;48.082;11.628;2023-01-23T02:35:55;96318.78;;;-5.19;96.64
72409;BME280;60402;48.082;11.628;2023-01-23T02:38:24;96325.63;;;-5.08;96.60
72409;BME280;60402;48.082;11.628;2023-01-23T02:40:50;96304.38;;;-5.25;96.58
72409;BME280;60402;48.082;11.628;2023-01-23T02:43:18;96335.81;;;-5.08;96.91
72409;BME280;60402;48.082;11.628;2023-01-23T02:45:45;96315.56;;;-5.21;97.05
72409;BME280;60402;48.082;11.628;2023-01-23T02:48:11;96327.72;;;-4.96;96.86
72409;BME280;60402;48.082;11.628;2023-01-23T02:50:36;96312.78;;;-4.95;96.90
72409;BME280;60402;48.082;11.628;2023-01-23T02:53:01;96287.50;;;-5.06;96.75
72409;BME280;60402;48.082;11.628;2023-01-23T02:55:27;96329.97;;;-4.72;96.54
72409;BME280;60402;48.082;11.628;2023-01-23T02:57:54;96310.22;;;-4.83;98.81
72409;BME280;60402;48.082;11.628;2023-01-23T03:00:41;96316.19;;;-4.64;97.90
72409;BME280;60402;48.082;11.628;2023-01-23T03:03:07;96339.06;;;-4.63;98.45
72409;BME280;60402;48.082;11.628;2023-01-23T03:05:33;96329.50;;;-4.66;98.52
72409;BME280;60402;48.082;11.628;2023-01-23T03:07:58;96330.31;;;-4.65;99.12
72409;BME280;60402;48.082;11.628;2023-01-23T03:10:24;96311.66;;;-4.85;98.83
72409;BME280;60402;48.082;11.628;2023-01-23T03:12:49;96341.19;;;-4.51;98.18
72409;BME280;60402;48.082;11.628;2023-01-23T03:15:14;96316.19;;;-4.81;98.87
72409;BME280;60402;48.082;11.628;2023-01-23T03:17:40;96357.38;;;-4.50;98.94
72409;BME280;60402;48.082;11.628;2023-01-23T03:20:05;96325.78;;;-4.61;98.48
72409;BME280;60402;48.082;11.628;2023-01-23T03:22:31;96333.66;;;-4.33;98.10
72409;BME280;60402;48.082;11.628;2023-01-23T03:24:56;96355.09;;;-4.39;98.52
72409;BME280;60402;48.082;11.628;2023-01-23T03:27:23;96356.22;;;-4.23;98.22
72409;BME280;60402;48.082;11.628;2023-01-23T03:29:48;96342.06;;;-4.13;96.82
72409;BME280;60402;48.082;11.628;2023-01-23T03:32:32;96344.13;;;-4.01;95.69
72409;BME280;60402;48.082;11.628;2023-01-23T03:34:58;96342.50;;;-4.02;95.74
72409;BME280;60402;48.082;11.628;2023-01-23T03:37:23;96339.94;;;-4.07;95.62
72409;BME280;60402;48.082;11.628;2023-01-23T03:39:48;96339.78;;;-4.19;95.95
72409;BME280;60402;48.082;11.628;2023-01-23T03:42:33;96287.00;;;-4.65;96.44
72409;BME280;60402;48.082;11.628;2023-01-23T03:44:59;96333.97;;;-4.26;96.78
72409;BME280;60402;48.082;11.628;2023-01-23T03:47:26;96324.25;;;-4.32;97.14
72409;BME280;60402;48.082;11.628;2023-01-23T03:49:52;96346.78;;;-4.22;97.54
72409;BME280;60402;48.082;11.628;2023-01-23T03:52:17;96346.97;;;-4.18;98.27
72409;BME280;60402;48.082;11.628;2023-01-23T03:54:42;96318.38;;;-4.22;97.28
72409;BME280;60402;48.082;11.628;2023-01-23T03:57:08;96347.25;;;-4.20;98.37
72409;BME280;60402;48.082;11.628;2023-01-23T03:59:34;96339.97;;;-4.33;99.67
72409;BME280;60402;48.082;11.628;2023-01-23T04:01:59;96359.47;;;-4.29;100.00
72409;BME280;60402;48.082;11.628;2023-01-23T04:04:25;96345.03;;;-4.52;100.00
72409;BME280;60402;48.082;11.628;2023-01-23T04:06:50;96361.94;;;-4.45;100.00
72409;BME280;60402;48.082;11.628;2023-01-23T04:09:16;96334.34;;;-4.63;100.00
72409;BME280;60402;48.082;11.628;2023-01-23T04:11:41;96344.56;;;-4.63;100.00
72409;BME280;60402;48.082;11.628;2023-01-23T04:14:06;96325.09;;;-4.58;100.00
72409;BME280;60402;48.082;11.628;2023-01-23T04:16:32;96367.91;;;-4.43;100.00
72409;BME280;60402;48.082;11.628;2023-01-23T04:18:57;96351.88;;;-4.58;100.00
72409;BME280;60402;48.082;11.628;2023-01-23T04:21:22;96343.59;;;-4.67;100.00
72409;BME280;60402;48.082;11.628;2023-01-23T04:23:48;96345.28;;;-4.11;98.51
72409;BME280;60402;48.082;11.628;2023-01-23T04:26:13;96374.00;;;-3.94;97.84
72409;BME280;60402;48.082;11.628;2023-01-23T04:28:39;96375.19;;;-4.13;98.74
72409;BME280;60402;48.082;11.628;2023-01-23T04:31:04;96360.75;;;-4.27;99.51
72409;BME280;60402;48.082;11.628;2023-01-23T04:33:30;96372.44;;;-4.13;99.95
72409;BME280;60402;48.082;11.628;2023-01-23T04:35:58;96338.06;;;-4.32;100.00
72409;BME280;60402;48.082;11.628;2023-01-23T04:38:25;96372.25;;;-4.07;100.00
72409;BME280;60402;48.082;11.628;2023-01-23T04:40:51;96368.19;;;-4.10;100.00
72409;BME280;60402;48.082;11.628;2023-01-23T04:43:17;96309.19;;;-4.44;99.86
72409;BME280;60402;48.082;11.628;2023-01-23T04:45:42;96356.50;;;-4.16;100.00
72409;BME280;60402;48.082;11.628;2023-01-23T04:48:09;96346.47;;;-4.20;100.00
72409;BME280;60402;48.082;11.628;2023-01-23T04:50:34;96348.06;;;-4.19;100.00
72409;BME280;60402;48.082;11.628;2023-01-23T04:53:00;96355.25;;;-4.27;100.00
72409;BME280;60402;48.082;11.628;2023-01-23T04:55:25;96373.06;;;-4.16;100.00
72409;BME280;60402;48.082;11.628;2023-01-23T04:57:52;96346.97;;;-4.27;100.00
72409;BME280;60402;48.082;11.628;2023-01-23T05:00:18;96347.59;;;-4.21;100.00
72409;BME280;60402;48.082;11.628;2023-01-23T05:02:45;96356.84;;;-4.17;100.00
72409;BME280;60402;48.082;11.628;2023-01-23T05:05:10;96357.00;;;-4.14;100.00
72409;BME280;60402;48.082;11.628;2023-01-23T05:07:36;96355.41;;;-4.23;100.00
72409;BME280;60402;48.082;11.628;2023-01-23T05:10:02;96369.97;;;-4.05;100.00
72409;BME280;60402;48.082;11.628;2023-01-23T05:12:27;96355.31;;;-3.97;100.00
72409;BME280;60402;48.082;11.628;2023-01-23T05:14:53;96370.34;;;-3.77;98.65
72409;BME280;60402;48.082;11.628;2023-01-23T05:17:18;96360.81;;;-3.80;98.75
72409;BME280;60402;48.082;11.628;2023-01-23T05:19:43;96346.41;;;-4.03;99.49
72409;BME280;60402;48.082;11.628;2023-01-23T05:22:09;96358.66;;;-3.74;99.27
72409;BME280;60402;48.082;11.628;2023-01-23T05:24:34;96350.00;;;-3.64;96.78
72409;BME280;60402;48.082;11.628;2023-01-23T05:26:59;96379.50;;;-3.47;96.39
72409;BME280;60402;48.082;11.628;2023-01-23T05:29:25;96393.22;;;-3.60;97.45
72409;BME280;60402;48.082;11.628;2023-01-23T05:31:50;96361.09;;;-3.73;97.50
72409;BME280;60402;48.082;11.628;2023-01-23T05:34:15;96395.75;;;-3.46;97.10
72409;BME280;60402;48.082;11.628;2023-01-23T05:36:40;96382.00;;;-3.63;96.87
72409;BME280;60402;48.082;11.628;2023-01-23T05:39:06;96394.00;;;-3.59;97.22
72409;BME280;60402;48.082;11.628;2023-01-23T05:41:31;96402.75;;;-3.48;97.50
72409;BME280;60402;48.082;11.628;2023-01-23T05:43:56;96383.84;;;-3.76;97.71
72409;BME280;60402;48.082;11.628;2023-01-23T05:46:22;96387.91;;;-3.73;98.29
72409;BME280;60402;48.082;11.628;2023-01-23T05:48:48;96364.34;;;-3.71;96.82
72409;BME280;60402;48.082;11.628;2023-01-23T05:51:14;96384.03;;;-3.81;98.26
72409;BME280;60402;48.082;11.628;2023-01-23T05:53:39;96370.25;;;-3.90;99.10
72409;BME280;60402;48.082;11.628;2023-01-23T05:56:06;96393.22;;;-3.68;99.19
72409;BME280;60402;48.082;11.628;2023-01-23T05:58:32;96373.31;;;-3.82;98.66
72409;BME280;60402;48.082;11.628;2023-01-23T06:00:57;96365.69;;;-3.86;99.90
72409;BME280;60402;48.082;11.628;2023-01-23T06:03:22;96372.69;;;-3.88;100.00
72409;BME280;60402;48.082;11.628;2023-01-23T06:05:48;96372.34;;;-3.87;100.00
72409;BME280;60402;48.082;11.628;2023-01-23T06:08:13;96390.19;;;-3.75;100.00
72409;BME280;60402;48.082;11.628;2023-01-23T06:10:38;96396.16;;;-3.65;100.00
72409;BME280;60402;48.082;11.628;2023-01-23T06:13:04;96373.13;;;-3.77;100.00
72409;BME280;60402;48.082;11.628;2023-01-23T06:15:29;96394.56;;;-3.74;100.00
72409;BME280;60402;48.082;11.628;2023-01-23T06:17:54;96415.75;;;-3.49;99.68
72409;BME280;60402;48.082;11.628;2023-01-23T06:20:20;96387.41;;;-3.67;100.00
72409;BME280;60402;48.082;11.628;2023-01-23T06:22:45;96388.53;;;-3.68;100.00
72409;BME280;60402;48.082;11.628;2023-01-23T06:25:10;96400.56;;;-3.72;100.00
72409;BME280;60402;48.082;11.628;2023-01-23T06:27:36;96403.97;;;-3.67;100.00
72409;BME280;60402;48.082;11.628;2023-01-23T06:30:01;96396.53;;;-3.75;100.00
72409;BME280;60402;48.082;11.628;2023-01-23T06:32:26;96389.06;;;-3.45;99.78
72409;BME280;60402;48.082;11.628;2023-01-23T06:34:52;96395.72;;;-3.08;97.46
72409;BME280;60402;48.082;11.628;2023-01-23T06:37:17;96394.09;;;-3.09;96.49
72409;BME280;60402;48.082;11.628;2023-01-23T06:39:42;96397.22;;;-3.10;96.53
72409;BME280;60402;48.082;11.628;2023-01-23T06:42:08;96375.44;;;-3.20;96.47
72409;BME280;60402;48.082;11.628;2023-01-23T06:44:35;96399.81;;;-3.14;98.05
72409;BME280;60402;48.082;11.628;2023-01-23T06:47:01;96378.09;;;-3.24;97.99
72409;BME280;60402;48.082;11.628;2023-01-23T06:49:26;96363.06;;;-3.44;98.19
72409;BME280;60402;48.082;11.628;2023-01-23T06:51:51;96392.97;;;-3.37;99.44
72409;BME280;60402;48.082;11.628;2023-01-23T06:54:17;96395.75;;;-3.16;99.47
72409;BME280;60402;48.082;11.628;2023-01-23T06:56:42;96372.81;;;-3.38;99.01
72409;BME280;60402;48.082;11.628;2023-01-23T06:59:08;96419.06;;;-3.26;99.89
72409;BME280;60402;48.082;11.628;2023-01-23T07:01:33;96387.34;;;-3.58;100.00
72409;BME280;60402;48.082;11.628;2023-01-23T07:03:58;96415.44;;;-3.47;100.00
72409;BME280;60402;48.082;11.628;2023-01-23T07:06:23;96400.03;;;-3.57;100.00
72409;BME280;60402;48.082;11.628;2023-01-23T07:08:49;96418.97;;;-3.38;100.00
72409;BME280;60402;48.082;11.628;2023-01-23T07:11:14;96412.38;;;-3.25;100.00
72409;BME280;60402;48.082;11.628;2023-01-23T07:13:39;96393.78;;;-3.45;100.00
72409;BME280;60402;48.082;11.628;2023-01-23T07:16:05;96429.16;;;-3.30;100.00
72409;BME280;60402;48.082;11.628;2023-01-23T07:18:30;96422.59;;;-3.55;100.00
72409;BME280;60402;48.082;11.628;2023-01-23T07:20:57;96439.13;;;-3.38;100.00
72409;BME280;60402;48.082;11.628;2023-01-23T07:23:23;96407.97;;;-3.55;100.00
72409;BME280;60402;48.082;11.628;2023-01-23T07:25:48;96418.91;;;-3.68;100.00
72409;BME280;60402;48.082;11.628;2023-01-23T07:28:13;96439.59;;;-3.36;100.00
72409;BME280;60402;48.082;11.628;2023-01-23T07:30:39;96440.94;;;-3.42;100.00
72409;BME280;60402;48.082;11.628;2023-01-23T07:33:05;96448.66;;;-3.26;100.00
72409;BME280;60402;48.082;11.628;2023-01-23T07:35:30;96447.84;;;-3.27;100.00
72409;BME280;60402;48.082;11.628;2023-01-23T07:37:56;96406.00;;;-3.46;100.00
72409;BME280;60402;48.082;11.628;2023-01-23T07:40:21;96427.31;;;-3.17;100.00
72409;BME280;60402;48.082;11.628;2023-01-23T07:42:47;96418.31;;;-3.05;100.00
72409;BME280;60402;48.082;11.628;2023-01-23T07:45:12;96424.63;;;-2.96;100.00
72409;BME280;60402;48.082;11.628;2023-01-23T07:47:38;96440.88;;;-3.24;100.00
72409;BME280;60402;48.082;11.628;2023-01-23T07:50:08;96428.84;;;-3.28;100.00
72409;BME280;60402;48.082;11.628;2023-01-23T07:52:35;96449.34;;;-3.00;100.00
72409;BME280;60402;48.082;11.628;2023-01-23T07:55:00;96421.94;;;-3.14;100.00
72409;BME280;60402;48.082;11.628;2023-01-23T07:57:25;96425.09;;;-3.24;100.00
72409;BME280;60402;48.082;11.628;2023-01-23T07:59:51;96421.69;;;-3.29;100.00
72409;BME280;60402;48.082;11.628;2023-01-23T08:02:16;96443.28;;;-3.23;100.00
72409;BME280;60402;48.082;11.628;2023-01-23T08:04:41;96427.66;;;-3.19;100.00
72409;BME280;60402;48.082;11.628;2023-01-23T08:07:07;96424.16;;;-3.07;100.00
72409;BME280;60402;48.082;11.628;2023-01-23T08:09:32;96424.88;;;-2.89;100.00
72409;BME280;60402;48.082;11.628;2023-01-23T08:11:57;96431.19;;;-2.80;100.00
72409;BME280;60402;48.082;11.628;2023-01-23T08:14:23;96446.78;;;-2.54;100.00
72409;BME280;60402;48.082;11.628;2023-01-23T08:16:49;96453.88;;;-2.95;100.00
72409;BME280;60402;48.082;11.628;2023-01-23T08:19:15;96450.31;;;-2.96;100.00
72409;BME280;60402;48.082;11.628;2023-01-23T08:21:41;96436.63;;;-2.92;100.00
72409;BME280;60402;48.082;11.628;2023-01-23T08:24:07;96436.69;;;-3.01;100.00
72409;BME280;60402;48.082;11.628;2023-01-23T08:26:32;96442.22;;;-3.01;100.00
72409;BME280;60402;48.082;11.628;2023-01-23T08:28:58;96449.78;;;-2.89;100.00
72409;BME280;60402;48.082;11.628;2023-01-23T08:31:24;96447.88;;;-2.97;100.00
72409;BME280;60402;48.082;11.628;2023-01-23T08:33:49;96456.03;;;-3.01;100.00
72409;BME280;60402;48.082;11.628;2023-01-23T08:36:14;96481.50;;;-2.87;100.00
72409;BME280;60402;48.082;11.628;2023-01-23T08:38:40;96443.09;;;-2.88;100.00
72409;BME280;60402;48.082;11.628;2023-01-23T08:41:05;96457.22;;;-2.81;100.00
72409;BME280;60402;48.082;11.628;2023-01-23T08:43:31;96442.28;;;-2.89;100.00
72409;BME280;60402;48.082;11.628;2023-01-23T08:45:58;96429.56;;;-2.81;100.00
72409;BME280;60402;48.082;11.628;2023-01-23T08:48:24;96460.06;;;-2.69;100.00
72409;BME280;60402;48.082;11.628;2023-01-23T08:50:56;96456.84;;;-2.71;100.00
72409;BME280;60402;48.082;11.628;2023-01-23T08:53:21;96446.63;;;-2.79;100.00
72409;BME280;60402;48.082;11.628;2023-01-23T08:55:47;96451.31;;;-2.71;100.00
72409;BME280;60402;48.082;11.628;2023-01-23T08:58:12;96451.56;;;-2.64;100.00
72409;BME280;60402;48.082;11.628;2023-01-23T09:00:38;96468.59;;;-2.53;100.00
72409;BME280;60402;48.082;11.628;2023-01-23T09:03:04;96429.91;;;-2.62;100.00
72409;BME280;60402;48.082;11.628;2023-01-23T09:05:30;96456.53;;;-2.48;100.00
72409;BME280;60402;48.082;11.628;2023-01-23T09:07:56;96458.94;;;-2.47;100.00
72409;BME280;60402;48.082;11.628;2023-01-23T09:10:22;96457.53;;;-2.32;100.00
72409;BME280;60402;48.082;11.628;2023-01-23T09:12:52;96468.59;;;-2.32;100.00
72409;BME280;60402;48.082;11.628;2023-01-23T09:15:18;96473.94;;;-2.27;100.00
72409;BME280;60402;48.082;11.628;2023-01-23T09:17:43;96445.50;;;-2.36;100.00
72409;BME280;60402;48.082;11.628;2023-01-23T09:20:09;96465.63;;;-2.27;100.00
72409;BME280;60402;48.082;11.628;2023-01-23T09:22:34;96450.09;;;-2.40;100.00
72409;BME280;60402;48.082;11.628;2023-01-23T09:25:00;96458.03;;;-2.30;100.00
72409;BME280;60402;48.082;11.628;2023-01-23T09:27:25;96447.47;;;-2.37;100.00
72409;BME280;60402;48.082;11.628;2023-01-23T09:29:50;96449.84;;;-2.26;100.00
72409;BME280;60402;48.082;11.628;2023-01-23T09:32:16;96435.38;;;-2.32;100.00
72409;BME280;60402;48.082;11.628;2023-01-23T09:34:41;96442.22;;;-2.29;100.00
72409;BME280;60402;48.082;11.628;2023-01-23T09:37:07;96423.13;;;-2.43;100.00
72409;BME280;60402;48.082;11.628;2023-01-23T09:39:32;96453.56;;;-2.22;100.00
72409;BME280;60402;48.082;11.628;2023-01-23T09:42:01;96462.72;;;-2.10;100.00
72409;BME280;60402;48.082;11.628;2023-01-23T09:44:38;96461.59;;;-2.09;100.00
72409;BME280;60402;48.082;11.628;2023-01-23T09:47:10;96475.84;;;-2.19;100.00
72409;BME280;60402;48.082;11.628;2023-01-23T09:52:20;96440.50;;;-2.22;100.00
72409;BME280;60402;48.082;11.628;2023-01-23T09:54:48;96466.69;;;-1.98;100.00
72409;BME280;60402;48.082;11.628;2023-01-23T09:57:19;96477.25;;;-1.92;100.00
72409;BME280;60402;48.082;11.628;2023-01-23T09:59:50;96459.81;;;-1.92;100.00
72409;BME280;60402;48.082;11.628;2023-01-23T10:02:19;96470.47;;;-1.82;100.00
72409;BME280;60402;48.082;11.628;2023-01-23T10:04:49;96446.91;;;-1.88;100.00
72409;BME280;60402;48.082;11.628;2023-01-23T10:13:04;96452.09;;;-1.87;100.00
72409;BME280;60402;48.082;11.628;2023-01-23T10:25:47;96425.63;;;-1.96;100.00
72409;BME280;60402;48.082;11.628;2023-01-23T10:28:21;96433.66;;;-1.70;100.00
72409;BME280;60402;48.082;11.628;2023-01-23T10:30:53;96420.88;;;-1.63;100.00
72409;BME280;60402;48.082;11.628;2023-01-23T10:33:30;96433.84;;;-1.55;100.00
72409;BME280;60402;48.082;11.628;2023-01-23T10:36:26;96440.50;;;-1.68;100.00
72409;BME280;60402;48.082;11.628;2023-01-23T10:39:10;96428.47;;;-1.72;100.00
72409;BME280;60402;48.082;11.628;2023-01-23T10:41:38;96421.97;;;-1.55;100.00
72409;BME280;60402;48.082;11.628;2023-01-23T10:44:16;96421.97;;;-1.55;100.00
72409;BME280;60402;48.082;11.628;2023-01-23T10:46:51;96429.94;;;-1.41;100.00
72409;BME280;60402;48.082;11.628;2023-01-23T10:49:30;96427.19;;;-1.29;100.00
72409;BME280;60402;48.082;11.628;2023-01-23T10:51:57;96385.13;;;-1.43;100.00
72409;BME280;60402;48.082;11.628;2023-01-23T10:54:29;96403.38;;;-1.18;100.00
72409;BME280;60402;48.082;11.628;2023-01-23T10:56:57;96406.38;;;-1.23;100.00
72409;BME280;60402;48.082;11.628;2023-01-23T10:59:29;96387.75;;;-1.59;100.00
72409;BME280;60402;48.082;11.628;2023-01-23T11:02:18;96395.91;;;-1.17;100.00
72409;BME280;60402;48.082;11.628;2023-01-23T11:04:46;96386.75;;;-1.30;100.00
72409;BME280;60402;48.082;11.628;2023-01-23T11:07:18;96401.88;;;-1.15;100.00
72409;BME280;60402;48.082;11.628;2023-01-23T11:12:34;96397.38;;;-1.20;100.00
72409;BME280;60402;48.082;11.628;2023-01-23T11:17:44;96385.94;;;-1.18;100.00
72409;BME280;60402;48.082;11.628;2023-01-23T11:20:30;96390.81;;;-1.03;100.00
72409;BME280;60402;48.082;11.628;2023-01-23T11:23:15;96358.66;;;-1.04;100.00
72409;BME280;60402;48.082;11.628;2023-01-23T11:25:49;96350.22;;;-1.20;100.00
72409;BME280;60402;48.082;11.628;2023-01-23T11:31:17;96360.28;;;-1.40;100.00
72409;BME280;60402;48.082;11.628;2023-01-23T11:42:00;96353.56;;;-1.14;100.00
72409;BME280;60402;48.082;11.628;2023-01-23T11:44:27;96349.19;;;-1.15;100.00
72409;BME280;60402;48.082;11.628;2023-01-23T11:47:32;96371.50;;;-1.12;100.00
72409;BME280;60402;48.082;11.628;2023-01-23T11:50:13;96356.94;;;-1.21;100.00
72409;BME280;60402;48.082;11.628;2023-01-23T11:52:44;96374.97;;;-1.27;100.00
72409;BME280;60402;48.082;11.628;2023-01-23T11:55:40;96359.09;;;-0.90;100.00
72409;BME280;60402;48.082;11.628;2023-01-23T11:59:01;96356.91;;;-0.96;100.00
72409;BME280;60402;48.082;11.628;2023-01-23T12:01:12;96342.84;;;-1.16;100.00
72409;BME280;60402;48.082;11.628;2023-01-23T12:06:36;96336.09;;;-0.78;100.00
72409;BME280;60402;48.082;11.628;2023-01-23T12:12:19;96339.78;;;-0.74;100.00
72409;BME280;60402;48.082;11.628;2023-01-23T12:17:17;96335.59;;;-0.68;100.00
72409;BME280;60402;48.082;11.628;2023-01-23T12:25:15;96325.41;;;-0.64;100.00
72409;BME280;60402;48.082;11.628;2023-01-23T12:27:46;96313.59;;;-0.61;100.00
72409;BME280;60402;48.082;11.628;2023-01-23T12:39:04;96299.66;;;-0.77;100.00
72409;BME280;60402;48.082;11.628;2023-01-23T12:41:44;96310.19;;;-0.82;100.00
72409;BME280;60402;48.082;11.628;2023-01-23T12:44:21;96305.50;;;-0.94;100.00
72409;BME280;60402;48.082;11.628;2023-01-23T12:47:01;96299.91;;;-0.82;100.00
72409;BME280;60402;48.082;11.628;2023-01-23T12:52:01;96286.28;;;-0.87;100.00
72409;BME280;60402;48.082;11.628;2023-01-23T12:54:35;96315.53;;;-0.89;100.00
72409;BME280;60402;48.082;11.628;2023-01-23T12:57:03;96304.75;;;-0.79;100.00
72409;BME280;60402;48.082;11.628;2023-01-23T12:59:53;96315.28;;;-0.84;100.00
72409;BME280;60402;48.082;11.628;2023-01-23T13:05:09;96320.03;;;-0.85;100.00
72409;BME280;60402;48.082;11.628;2023-01-23T13:08:32;96311.38;;;-0.95;100.00
72409;BME280;60402;48.082;11.628;2023-01-23T13:11:34;96322.13;;;-0.94;100.00
72409;BME280;60402;48.082;11.628;2023-01-23T13:13:57;96289.22;;;-1.08;100.00
72409;BME280;60402;48.082;11.628;2023-01-23T13:16:32;96307.31;;;-0.86;100.00
72409;BME280;60402;48.082;11.628;2023-01-23T13:18:59;96318.06;;;-0.84;100.00
72409;BME280;60402;48.082;11.628;2023-01-23T13:22:10;96308.09;;;-0.73;100.00
72409;BME280;60402;48.082;11.628;2023-01-23T13:29:58;96320.84;;;-0.84;100.00
72409;BME280;60402;48.082;11.628;2023-01-23T13:32:27;96332.63;;;-0.75;100.00
72409;BME280;60402;48.082;11.628;2023-01-23T13:34:53;96317.00;;;-0.80;100.00
72409;BME280;60402;48.082;11.628;2023-01-23T13:42:38;96311.38;;;-0.95;100.00
72409;BME280;60402;48.082;11.628;2023-01-23T13:47:54;96321.41;;;-0.79;100.00
72409;BME280;60402;48.082;11.628;2023-01-23T13:50:44;96307.53;;;-0.91;100.00
72409;BME280;60402;48.082;11.628;2023-01-23T13:53:18;96302.22;;;-0.84;100.00
72409;BME280;60402;48.082;11.628;2023-01-23T13:56:03;96328.19;;;-0.76;100.00
72409;BME280;60402;48.082;11.628;2023-01-23T13:58:48;96332.94;;;-0.77;100.00
72409;BME280;60402;48.082;11.628;2023-01-23T14:01:17;96319.31;;;-0.82;100.00
72409;BME280;60402;48.082;11.628;2023-01-23T14:04:12;96327.06;;;-0.75;100.00
72409;BME280;60402;48.082;11.628;2023-01-23T14:06:56;96332.94;;;-0.77;100.00
72409;BME280;60402;48.082;11.628;2023-01-23T14:09:28;96324.75;;;-0.85;100.00
72409;BME280;60402;48.082;11.628;2023-01-23T14:12:01;96326.56;;;-0.65;100.00
72409;BME280;60402;48.082;11.628;2023-01-23T14:14:37;96310.31;;;-0.79;100.00
72409;BME280;60402;48.082;11.628;2023-01-23T14:17:23;96307.63;;;-0.75;100.00